sensor_id;sensor_type;location;lat;lon;timestamp;pressure;altitude;pressure_sealevel;temperature;humidity
18137;BME280;9194;42.632;23.298;2022-08-21T00:00:27;92110.88;;;18.36;100.00
18137;BME280;9194;42.632;23.298;2022-08-21T00:05:29;92100.19;;;18.52;100.00
18137;BME280;9194;42.632;23.298;2022-08-21T00:10:32;92091.81;;;18.44;100.00
18137;BME280;9194;42.632;23.298;2022-08-21T00:15:36;92085.09;;;18.33;100.00
18137;BME280;9194;42.632;23.298;2022-08-21T00:20:39;92082.16;;;18.35;100.00
18137;BME280;9194;42.632;23.298;2022-08-21T00:25:42;92073.19;;;18.36;100.00
18137;BME280;9194;42.632;23.298;2022-08-21T00:30:44;92071.84;;;18.38;100.00
18137;BME280;9194;42.632;23.298;2022-08-21T00:35:46;92080.81;;;18.37;100.00
18137;BME280;9194;42.632;23.298;2022-08-21T00:40:52;92079.31;;;18.31;100.00
18137;BME280;9194;42.632;23.298;2022-08-21T00:45:54;92082.53;;;18.28;100.00
18137;BME280;9194;42.632;23.298;2022-08-21T00:51:09;92082.06;;;18.21;100.00
18137;BME280;9194;42.632;23.298;2022-08-21T00:56:12;92081.50;;;18.24;100.00
18137;BME280;9194;42.632;23.298;2022-08-21T01:01:14;92087.56;;;18.25;100.00
18137;BME280;9194;42.632;23.298;2022-08-21T01:06:15;92073.38;;;18.21;100.00
18137;BME280;9194;42.632;23.298;2022-08-21T01:11:17;92071.84;;;18.15;100.00
18137;BME280;9194;42.632;23.298;2022-08-21T01:16:20;92060.03;;;18.12;100.00
18137;BME280;9194;42.632;23.298;2022-08-21T01:21:25;92055.09;;;18.05;100.00
18137;BME280;9194;42.632;23.298;2022-08-21T01:26:30;92049.94;;;17.95;100.00
18137;BME280;9194;42.632;23.298;2022-08-21T01:31:31;92057.84;;;17.95;100.00
18137;BME280;9194;42.632;23.298;2022-08-21T01:36:34;92062.25;;;18.00;100.00
18137;BME280;9194;42.632;23.298;2022-08-21T01:41:35;92069.56;;;18.08;100.00
18137;BME280;9194;42.632;23.298;2022-08-21T01:46:37;92055.38;;;18.04;100.00
18137;BME280;9194;42.632;23.298;2022-08-21T01:51:38;92056.78;;;17.96;100.00
18137;BME280;9194;42.632;23.298;2022-08-21T01:56:46;92052.63;;;17.90;100.00
18137;BME280;9194;42.632;23.298;2022-08-21T02:01:47;92070.91;;;17.77;100.00
18137;BME280;9194;42.632;23.298;2022-08-21T02:06:50;92067.53;;;17.76;100.00
18137;BME280;9194;42.632;23.298;2022-08-21T02:11:52;92070.91;;;17.77;100.00
18137;BME280;9194;42.632;23.298;2022-08-21T02:16:53;92073.66;;;17.67;100.00
18137;BME280;9194;42.632;23.298;2022-08-21T02:21:55;92076.53;;;17.65;100.00
18137;BME280;9194;42.632;23.298;2022-08-21T02:26:56;92076.34;;;17.56;100.00
18137;BME280;9194;42.632;23.298;2022-08-21T02:31:57;92083.22;;;17.52;100.00
18137;BME280;9194;42.632;23.298;2022-08-21T02:36:59;92081.97;;;17.45;100.00
18137;BME280;9194;42.632;23.298;2022-08-21T02:42:01;92087.59;;;17.33;100.00
18137;BME280;9194;42.632;23.298;2022-08-21T02:47:02;92080.22;;;17.35;100.00
18137;BME280;9194;42.632;23.298;2022-08-21T02:52:03;92074.06;;;17.45;100.00
18137;BME280;9194;42.632;23.298;2022-08-21T02:57:06;92078.19;;;17.56;100.00
18137;BME280;9194;42.632;23.298;2022-08-21T03:02:09;92078.69;;;17.63;100.00
18137;BME280;9194;42.632;23.298;2022-08-21T03:07:11;92081.31;;;17.63;100.00
18137;BME280;9194;42.632;23.298;2022-08-21T03:12:38;92076.88;;;17.58;100.00
18137;BME280;9194;42.632;23.298;2022-08-21T03:17:39;92081.53;;;17.67;100.00
18137;BME280;9194;42.632;23.298;2022-08-21T03:22:41;92079.75;;;17.62;100.00
18137;BME280;9194;42.632;23.298;2022-08-21T03:27:43;92071.13;;;17.51;100.00
18137;BME280;9194;42.632;23.298;2022-08-21T03:32:44;92067.19;;;17.49;100.00
18137;BME280;9194;42.632;23.298;2022-08-21T03:37:46;92063.50;;;17.50;100.00
18137;BME280;9194;42.632;23.298;2022-08-21T03:42:48;92072.41;;;17.54;100.00
18137;BME280;9194;42.632;23.298;2022-08-21T03:48:01;92065.81;;;17.56;100.00
18137;BME280;9194;42.632;23.298;2022-08-21T03:53:04;92073.56;;;17.43;100.00
18137;BME280;9194;42.632;23.298;2022-08-21T03:58:05;92087.81;;;17.37;100.00
18137;BME280;9194;42.632;23.298;2022-08-21T04:03:06;92090.97;;;17.39;100.00
18137;BME280;9194;42.632;23.298;2022-08-21T04:08:14;92098.09;;;17.33;100.00
18137;BME280;9194;42.632;23.298;2022-08-21T04:13:18;92098.41;;;17.27;100.00
18137;BME280;9194;42.632;23.298;2022-08-21T04:18:20;92088.09;;;17.35;100.00
18137;BME280;9194;42.632;23.298;2022-08-21T04:23:21;92087.09;;;17.26;100.00
18137;BME280;9194;42.632;23.298;2022-08-21T04:28:25;92081.44;;;17.43;100.00
18137;BME280;9194;42.632;23.298;2022-08-21T04:33:26;92082.88;;;17.59;100.00
18137;BME280;9194;42.632;23.298;2022-08-21T04:38:27;92078.91;;;17.67;100.00
18137;BME280;9194;42.632;23.298;2022-08-21T04:43:29;92074.75;;;17.60;100.00
18137;BME280;9194;42.632;23.298;2022-08-21T04:48:31;92073.69;;;17.61;100.00
18137;BME280;9194;42.632;23.298;2022-08-21T04:53:38;92087.91;;;17.60;100.00
18137;BME280;9194;42.632;23.298;2022-08-21T04:58:42;92085.22;;;17.65;100.00
18137;BME280;9194;42.632;23.298;2022-08-21T05:03:44;92086.44;;;17.78;100.00
18137;BME280;9194;42.632;23.298;2022-08-21T05:08:49;92085.53;;;17.93;100.00
18137;BME280;9194;42.632;23.298;2022-08-21T05:13:52;92075.22;;;18.20;100.00
18137;BME280;9194;42.632;23.298;2022-08-21T05:18:54;92085.19;;;18.23;100.00
18137;BME280;9194;42.632;23.298;2022-08-21T05:23:55;92084.69;;;17.97;100.00
18137;BME280;9194;42.632;23.298;2022-08-21T05:28:56;92085.41;;;18.03;100.00
18137;BME280;9194;42.632;23.298;2022-08-21T05:33:58;92073.91;;;18.41;100.00
18137;BME280;9194;42.632;23.298;2022-08-21T05:38:59;92076.06;;;18.82;100.00
18137;BME280;9194;42.632;23.298;2022-08-21T05:44:01;92073.53;;;18.96;100.00
18137;BME280;9194;42.632;23.298;2022-08-21T05:49:02;92067.03;;;18.69;100.00
18137;BME280;9194;42.632;23.298;2022-08-21T05:54:03;92066.41;;;18.96;100.00
18137;BME280;9194;42.632;23.298;2022-08-21T05:59:04;92074.63;;;18.71;100.00
18137;BME280;9194;42.632;23.298;2022-08-21T06:04:06;92073.84;;;18.70;100.00
18137;BME280;9194;42.632;23.298;2022-08-21T06:09:08;92065.31;;;18.78;100.00
18137;BME280;9194;42.632;23.298;2022-08-21T06:14:09;92076.38;;;18.80;100.00
18137;BME280;9194;42.632;23.298;2022-08-21T06:19:11;92068.03;;;18.73;100.00
18137;BME280;9194;42.632;23.298;2022-08-21T06:24:12;92059.94;;;18.41;100.00
18137;BME280;9194;42.632;23.298;2022-08-21T06:29:13;92070.09;;;18.58;100.00
18137;BME280;9194;42.632;23.298;2022-08-21T06:34:18;92063.16;;;19.37;100.00
18137;BME280;9194;42.632;23.298;2022-08-21T06:39:20;92069.72;;;20.18;100.00
18137;BME280;9194;42.632;23.298;2022-08-21T06:44:21;92066.81;;;20.46;100.00
18137;BME280;9194;42.632;23.298;2022-08-21T06:49:22;92071.66;;;19.98;100.00
18137;BME280;9194;42.632;23.298;2022-08-21T06:54:24;92071.44;;;20.41;100.00
18137;BME280;9194;42.632;23.298;2022-08-21T06:59:25;92088.88;;;20.56;100.00
18137;BME280;9194;42.632;23.298;2022-08-21T07:04:28;92088.34;;;20.81;100.00
18137;BME280;9194;42.632;23.298;2022-08-21T07:09:30;92082.25;;;21.08;100.00
18137;BME280;9194;42.632;23.298;2022-08-21T07:14:32;92093.25;;;21.37;100.00
18137;BME280;9194;42.632;23.298;2022-08-21T07:19:33;92080.19;;;21.41;100.00
18137;BME280;9194;42.632;23.298;2022-08-21T07:24:35;92082.31;;;21.97;100.00
18137;BME280;9194;42.632;23.298;2022-08-21T07:29:36;92074.81;;;22.21;100.00
18137;BME280;9194;42.632;23.298;2022-08-21T07:34:38;92067.16;;;22.68;100.00
18137;BME280;9194;42.632;23.298;2022-08-21T07:39:39;92060.44;;;22.62;100.00
18137;BME280;9194;42.632;23.298;2022-08-21T07:44:41;92064.59;;;22.45;99.53
18137;BME280;9194;42.632;23.298;2022-08-21T07:49:42;92058.38;;;22.41;100.00
18137;BME280;9194;42.632;23.298;2022-08-21T07:54:43;92053.69;;;22.47;100.00
18137;BME280;9194;42.632;23.298;2022-08-21T07:59:44;92062.16;;;22.18;100.00
18137;BME280;9194;42.632;23.298;2022-08-21T08:04:46;92063.75;;;21.75;100.00
18137;BME280;9194;42.632;23.298;2022-08-21T08:09:50;92061.22;;;22.53;100.00
18137;BME280;9194;42.632;23.298;2022-08-21T08:14:51;92049.97;;;23.65;99.03
18137;BME280;9194;42.632;23.298;2022-08-21T08:19:54;92054.13;;;24.00;99.14
18137;BME280;9194;42.632;23.298;2022-08-21T08:24:55;92056.03;;;23.91;91.79
18137;BME280;9194;42.632;23.298;2022-08-21T08:35:39;92065.66;;;22.75;98.07
18137;BME280;9194;42.632;23.298;2022-08-21T08:40:47;92060.28;;;23.06;100.00
18137;BME280;9194;42.632;23.298;2022-08-21T08:45:54;92062.16;;;23.66;94.28
18137;BME280;9194;42.632;23.298;2022-08-21T08:51:00;92053.53;;;23.86;88.65
18137;BME280;9194;42.632;23.298;2022-08-21T08:56:03;92054.19;;;23.49;89.12
18137;BME280;9194;42.632;23.298;2022-08-21T09:01:14;92043.03;;;23.98;96.73
18137;BME280;9194;42.632;23.298;2022-08-21T09:06:37;92037.72;;;23.98;86.47
18137;BME280;9194;42.632;23.298;2022-08-21T09:11:49;92036.47;;;23.96;90.21
18137;BME280;9194;42.632;23.298;2022-08-21T09:17:14;92032.75;;;23.37;90.88
18137;BME280;9194;42.632;23.298;2022-08-21T09:27:40;92018.97;;;23.86;94.63
18137;BME280;9194;42.632;23.298;2022-08-21T09:32:42;92017.47;;;24.23;93.16
18137;BME280;9194;42.632;23.298;2022-08-21T09:37:56;92028.75;;;24.20;92.18
18137;BME280;9194;42.632;23.298;2022-08-21T09:53:21;92019.81;;;23.69;92.31
18137;BME280;9194;42.632;23.298;2022-08-21T09:58:33;92006.97;;;23.71;100.00
18137;BME280;9194;42.632;23.298;2022-08-21T10:03:34;92010.09;;;23.65;96.30
18137;BME280;9194;42.632;23.298;2022-08-21T10:08:38;92011.31;;;23.85;97.06
18137;BME280;9194;42.632;23.298;2022-08-21T10:14:09;92003.66;;;24.38;94.11
18137;BME280;9194;42.632;23.298;2022-08-21T10:24:55;91981.88;;;25.36;73.89
18137;BME280;9194;42.632;23.298;2022-08-21T10:30:16;91985.59;;;25.23;82.72
18137;BME280;9194;42.632;23.298;2022-08-21T10:40:40;91971.72;;;25.84;78.26
18137;BME280;9194;42.632;23.298;2022-08-21T10:51:09;91965.16;;;25.48;84.52
18137;BME280;9194;42.632;23.298;2022-08-21T10:56:18;91955.38;;;25.52;81.84
18137;BME280;9194;42.632;23.298;2022-08-21T11:01:28;91955.97;;;25.91;74.01
18137;BME280;9194;42.632;23.298;2022-08-21T11:06:33;91947.41;;;26.09;71.89
18137;BME280;9194;42.632;23.298;2022-08-21T11:11:48;91938.69;;;25.10;82.35
18137;BME280;9194;42.632;23.298;2022-08-21T11:17:00;91929.84;;;24.27;79.97
18137;BME280;9194;42.632;23.298;2022-08-21T11:32:36;91930.44;;;24.32;86.70
18137;BME280;9194;42.632;23.298;2022-08-21T11:37:49;91931.09;;;25.21;86.93
18137;BME280;9194;42.632;23.298;2022-08-21T11:48:36;91932.75;;;24.92;80.55
18137;BME280;9194;42.632;23.298;2022-08-21T11:58:56;91926.94;;;24.40;87.85
18137;BME280;9194;42.632;23.298;2022-08-21T12:04:16;91923.78;;;24.47;89.45
18137;BME280;9194;42.632;23.298;2022-08-21T12:14:47;91909.47;;;25.02;83.66
18137;BME280;9194;42.632;23.298;2022-08-21T12:20:15;91912.34;;;24.97;79.60
18137;BME280;9194;42.632;23.298;2022-08-21T12:25:20;91922.44;;;24.82;80.74
18137;BME280;9194;42.632;23.298;2022-08-21T12:35:37;91916.53;;;24.56;86.34
18137;BME280;9194;42.632;23.298;2022-08-21T12:46:04;91915.69;;;24.64;90.83
18137;BME280;9194;42.632;23.298;2022-08-21T12:51:14;91916.22;;;24.58;91.05
18137;BME280;9194;42.632;23.298;2022-08-21T12:56:25;91911.66;;;23.99;95.02
18137;BME280;9194;42.632;23.298;2022-08-21T13:01:36;91905.56;;;23.61;96.89
18137;BME280;9194;42.632;23.298;2022-08-21T13:06:43;91898.56;;;23.48;100.00
18137;BME280;9194;42.632;23.298;2022-08-21T13:11:46;91911.22;;;23.51;100.00
18137;BME280;9194;42.632;23.298;2022-08-21T13:16:53;91901.84;;;23.36;100.00
18137;BME280;9194;42.632;23.298;2022-08-21T13:21:55;91902.13;;;23.43;100.00
18137;BME280;9194;42.632;23.298;2022-08-21T13:26:57;91875.81;;;23.76;100.00
18137;BME280;9194;42.632;23.298;2022-08-21T13:32:00;91855.13;;;24.61;98.24
18137;BME280;9194;42.632;23.298;2022-08-21T13:37:08;91858.41;;;25.32;94.98
18137;BME280;9194;42.632;23.298;2022-08-21T13:42:11;91869.50;;;25.34;85.76
18137;BME280;9194;42.632;23.298;2022-08-21T13:47:15;91877.59;;;25.26;89.49
18137;BME280;9194;42.632;23.298;2022-08-21T13:52:19;91868.63;;;25.30;80.37
18137;BME280;9194;42.632;23.298;2022-08-21T13:57:30;91863.22;;;25.39;83.41
18137;BME280;9194;42.632;23.298;2022-08-21T14:02:38;91863.63;;;24.96;89.36
18137;BME280;9194;42.632;23.298;2022-08-21T14:07:41;91865.81;;;24.52;94.18
18137;BME280;9194;42.632;23.298;2022-08-21T14:12:48;91864.41;;;24.05;95.15
18137;BME280;9194;42.632;23.298;2022-08-21T14:17:50;91863.31;;;23.68;100.00
18137;BME280;9194;42.632;23.298;2022-08-21T14:22:51;91871.19;;;23.47;100.00
18137;BME280;9194;42.632;23.298;2022-08-21T14:28:22;91869.34;;;23.30;100.00
18137;BME280;9194;42.632;23.298;2022-08-21T14:33:29;91866.56;;;23.18;100.00
18137;BME280;9194;42.632;23.298;2022-08-21T14:38:31;91881.31;;;22.99;100.00
18137;BME280;9194;42.632;23.298;2022-08-21T14:43:36;91877.06;;;23.15;100.00
18137;BME280;9194;42.632;23.298;2022-08-21T14:48:37;91860.94;;;23.28;100.00
18137;BME280;9194;42.632;23.298;2022-08-21T14:53:39;91865.31;;;23.24;100.00
18137;BME280;9194;42.632;23.298;2022-08-21T14:58:48;91867.56;;;23.05;100.00
18137;BME280;9194;42.632;23.298;2022-08-21T15:03:49;91866.03;;;22.87;100.00
18137;BME280;9194;42.632;23.298;2022-08-21T15:08:52;91856.34;;;22.74;100.00
18137;BME280;9194;42.632;23.298;2022-08-21T15:13:56;91842.13;;;22.70;100.00
18137;BME280;9194;42.632;23.298;2022-08-21T15:18:59;91823.72;;;22.73;100.00
18137;BME280;9194;42.632;23.298;2022-08-21T15:24:00;91808.88;;;22.81;100.00
18137;BME280;9194;42.632;23.298;2022-08-21T15:29:02;91802.63;;;22.85;100.00
18137;BME280;9194;42.632;23.298;2022-08-21T15:34:05;91802.19;;;22.75;100.00
18137;BME280;9194;42.632;23.298;2022-08-21T15:39:06;91786.41;;;22.70;100.00
18137;BME280;9194;42.632;23.298;2022-08-21T15:44:09;91788.75;;;22.63;100.00
18137;BME280;9194;42.632;23.298;2022-08-21T15:49:11;91791.09;;;22.56;100.00
18137;BME280;9194;42.632;23.298;2022-08-21T15:54:13;91790.66;;;22.53;100.00
18137;BME280;9194;42.632;23.298;2022-08-21T15:59:19;91799.22;;;22.50;100.00
18137;BME280;9194;42.632;23.298;2022-08-21T16:04:26;91808.59;;;22.48;100.00
18137;BME280;9194;42.632;23.298;2022-08-21T16:09:28;91820.44;;;22.16;100.00
18137;BME280;9194;42.632;23.298;2022-08-21T16:14:30;91832.94;;;22.24;100.00
18137;BME280;9194;42.632;23.298;2022-08-21T16:19:41;91850.72;;;22.24;100.00
18137;BME280;9194;42.632;23.298;2022-08-21T16:25:11;91851.00;;;22.05;100.00
18137;BME280;9194;42.632;23.298;2022-08-21T16:30:14;91859.47;;;21.76;100.00
18137;BME280;9194;42.632;23.298;2022-08-21T16:35:17;91865.16;;;21.52;100.00
18137;BME280;9194;42.632;23.298;2022-08-21T16:40:19;91864.72;;;21.28;100.00
18137;BME280;9194;42.632;23.298;2022-08-21T16:45:22;91869.31;;;21.14;100.00
18137;BME280;9194;42.632;23.298;2022-08-21T16:56:29;91869.44;;;20.86;100.00
18137;BME280;9194;42.632;23.298;2022-08-21T17:01:32;91874.63;;;20.69;100.00
18137;BME280;9194;42.632;23.298;2022-08-21T17:06:34;91882.63;;;20.56;100.00
18137;BME280;9194;42.632;23.298;2022-08-21T17:11:44;91894.31;;;20.41;100.00
18137;BME280;9194;42.632;23.298;2022-08-21T17:16:50;91900.00;;;20.34;100.00
18137;BME280;9194;42.632;23.298;2022-08-21T17:21:52;91910.38;;;20.31;100.00
18137;BME280;9194;42.632;23.298;2022-08-21T17:26:53;91925.06;;;20.23;100.00
18137;BME280;9194;42.632;23.298;2022-08-21T17:31:56;91925.56;;;20.25;100.00
18137;BME280;9194;42.632;23.298;2022-08-21T17:36:57;91913.31;;;20.29;100.00
18137;BME280;9194;42.632;23.298;2022-08-21T17:42:03;91923.09;;;20.29;100.00
18137;BME280;9194;42.632;23.298;2022-08-21T17:47:06;91935.63;;;20.23;100.00
18137;BME280;9194;42.632;23.298;2022-08-21T17:52:08;91941.69;;;20.10;100.00
18137;BME280;9194;42.632;23.298;2022-08-21T17:57:19;91953.25;;;20.00;100.00
18137;BME280;9194;42.632;23.298;2022-08-21T18:02:22;91961.88;;;19.92;100.00
18137;BME280;9194;42.632;23.298;2022-08-21T18:07:24;91962.84;;;19.83;100.00
18137;BME280;9194;42.632;23.298;2022-08-21T18:12:25;91959.53;;;19.77;100.00
18137;BME280;9194;42.632;23.298;2022-08-21T18:17:28;91964.81;;;19.77;100.00
18137;BME280;9194;42.632;23.298;2022-08-21T18:22:35;91971.66;;;19.78;100.00
18137;BME280;9194;42.632;23.298;2022-08-21T18:27:37;91976.63;;;19.66;100.00
18137;BME280;9194;42.632;23.298;2022-08-21T18:32:39;91973.22;;;19.65;100.00
18137;BME280;9194;42.632;23.298;2022-08-21T18:37:42;91969.28;;;19.63;100.00
18137;BME280;9194;42.632;23.298;2022-08-21T18:42:45;91969.69;;;19.70;100.00
18137;BME280;9194;42.632;23.298;2022-08-21T18:47:50;91966.25;;;19.56;100.00
18137;BME280;9194;42.632;23.298;2022-08-21T18:52:52;91962.06;;;19.55;100.00
18137;BME280;9194;42.632;23.298;2022-08-21T18:57:55;91958.28;;;19.42;100.00
18137;BME280;9194;42.632;23.298;2022-08-21T19:02:57;91957.25;;;19.24;100.00
18137;BME280;9194;42.632;23.298;2022-08-21T19:07:58;91964.28;;;19.15;100.00
18137;BME280;9194;42.632;23.298;2022-08-21T19:13:00;91962.63;;;19.19;100.00
18137;BME280;9194;42.632;23.298;2022-08-21T19:18:04;91970.97;;;19.26;100.00
18137;BME280;9194;42.632;23.298;2022-08-21T19:23:10;91961.56;;;19.20;100.00
18137;BME280;9194;42.632;23.298;2022-08-21T19:28:17;91971.16;;;19.30;100.00
18137;BME280;9194;42.632;23.298;2022-08-21T19:33:29;91968.72;;;19.34;100.00
18137;BME280;9194;42.632;23.298;2022-08-21T19:38:31;91976.56;;;19.39;100.00
18137;BME280;9194;42.632;23.298;2022-08-21T19:43:38;91985.91;;;19.31;100.00
18137;BME280;9194;42.632;23.298;2022-08-21T19:48:40;91997.19;;;19.37;100.00
18137;BME280;9194;42.632;23.298;2022-08-21T19:53:41;91997.59;;;19.44;100.00
18137;BME280;9194;42.632;23.298;2022-08-21T19:58:43;92003.94;;;19.43;100.00
18137;BME280;9194;42.632;23.298;2022-08-21T20:03:48;92000.09;;;19.54;100.00
18137;BME280;9194;42.632;23.298;2022-08-21T20:08:51;92002.72;;;19.54;100.00
18137;BME280;9194;42.632;23.298;2022-08-21T20:13:55;92003.88;;;19.48;100.00
18137;BME280;9194;42.632;23.298;2022-08-21T20:18:56;91999.88;;;19.50;100.00
18137;BME280;9194;42.632;23.298;2022-08-21T20:23:58;91993.81;;;19.50;100.00
18137;BME280;9194;42.632;23.298;2022-08-21T20:28:59;91982.38;;;19.54;100.00
18137;BME280;9194;42.632;23.298;2022-08-21T20:34:01;91981.09;;;19.52;100.00
18137;BME280;9194;42.632;23.298;2022-08-21T20:39:03;91996.81;;;19.43;100.00
18137;BME280;9194;42.632;23.298;2022-08-21T20:44:09;91991.75;;;19.47;100.00
18137;BME280;9194;42.632;23.298;2022-08-21T20:49:17;91985.31;;;19.34;100.00
18137;BME280;9194;42.632;23.298;2022-08-21T20:54:38;91975.28;;;19.36;100.00
18137;BME280;9194;42.632;23.298;2022-08-21T20:59:49;91975.47;;;19.40;100.00
18137;BME280;9194;42.632;23.298;2022-08-21T21:05:23;92000.09;;;19.03;100.00
18137;BME280;9194;42.632;23.298;2022-08-21T21:10:36;92009.50;;;19.09;100.00
18137;BME280;9194;42.632;23.298;2022-08-21T21:15:40;92011.72;;;19.02;100.00
18137;BME280;9194;42.632;23.298;2022-08-21T21:20:53;92011.25;;;18.81;100.00
18137;BME280;9194;42.632;23.298;2022-08-21T21:26:03;92005.22;;;18.94;100.00
18137;BME280;9194;42.632;23.298;2022-08-21T21:31:06;92010.22;;;18.96;100.00
18137;BME280;9194;42.632;23.298;2022-08-21T21:36:46;92001.81;;;18.94;100.00
18137;BME280;9194;42.632;23.298;2022-08-21T21:52:50;91987.97;;;18.83;100.00
18137;BME280;9194;42.632;23.298;2022-08-21T22:03:25;91989.75;;;18.50;100.00
18137;BME280;9194;42.632;23.298;2022-08-21T22:18:50;92000.75;;;18.15;100.00
18137;BME280;9194;42.632;23.298;2022-08-21T22:23:59;92000.69;;;17.96;100.00
18137;BME280;9194;42.632;23.298;2022-08-21T22:29:04;92004.28;;;18.05;100.00
18137;BME280;9194;42.632;23.298;2022-08-21T22:34:16;91991.84;;;18.11;100.00
18137;BME280;9194;42.632;23.298;2022-08-21T22:39:33;91993.03;;;18.18;100.00
18137;BME280;9194;42.632;23.298;2022-08-21T22:44:48;91987.56;;;18.15;100.00
18137;BME280;9194;42.632;23.298;2022-08-21T22:49:50;91979.78;;;18.04;100.00
18137;BME280;9194;42.632;23.298;2022-08-21T22:55:00;91975.25;;;17.86;100.00
18137;BME280;9194;42.632;23.298;2022-08-21T23:00:10;91972.34;;;17.88;100.00
18137;BME280;9194;42.632;23.298;2022-08-21T23:05:23;91980.00;;;17.84;100.00
18137;BME280;9194;42.632;23.298;2022-08-21T23:10:37;91985.25;;;17.60;100.00
18137;BME280;9194;42.632;23.298;2022-08-21T23:15:47;91993.03;;;17.47;100.00
18137;BME280;9194;42.632;23.298;2022-08-21T23:21:04;91991.63;;;17.54;100.00
18137;BME280;9194;42.632;23.298;2022-08-21T23:26:43;91993.75;;;17.52;100.00
18137;BME280;9194;42.632;23.298;2022-08-21T23:32:02;91995.28;;;17.58;100.00
18137;BME280;9194;42.632;23.298;2022-08-21T23:37:18;91998.94;;;17.62;100.00
18137;BME280;9194;42.632;23.298;2022-08-21T23:42:58;92002.09;;;17.59;100.00
18137;BME280;9194;42.632;23.298;2022-08-21T23:48:20;91994.75;;;17.61;100.00
18137;BME280;9194;42.632;23.298;2022-08-21T23:53:49;91993.94;;;17.61;100.00
18137;BME280;9194;42.632;23.298;2022-08-21T23:59:06;91992.63;;;17.63;100.00
